createdAt,value
2022-11-23T00:05:29.910Z,94556.56
2022-11-23T00:08:18.004Z,94559.03
2022-11-23T00:11:06.032Z,94558.34
2022-11-23T00:29:38.003Z,94559.25
2022-11-23T00:35:08.547Z,94550.28
2022-11-23T00:40:39.067Z,94548.16
2022-11-23T00:43:26.943Z,94551.63
2022-11-23T00:46:18.437Z,94552.52
2022-11-23T00:51:55.612Z,94548.48
2022-11-23T00:54:43.684Z,94551.95
2022-11-23T00:57:32.856Z,94550.94
2022-11-23T01:03:07.906Z,94550.95
2022-11-23T01:05:56.171Z,94550.50
2022-11-23T01:08:47.506Z,94558.23
2022-11-23T01:14:18.147Z,94563.28
2022-11-23T01:19:49.655Z,94562.39
2022-11-23T01:25:26.080Z,94554.60
2022-11-23T01:31:07.346Z,94554.91
2022-11-23T01:36:57.886Z,94557.87
2022-11-23T01:39:46.294Z,94561.47
2022-11-23T01:45:40.094Z,94556.34
2022-11-23T01:51:13.097Z,94565.03
2022-11-23T01:56:46.994Z,94557.84
2022-11-23T01:59:36.212Z,94554.67
2022-11-23T02:02:24.400Z,94554.31
2022-11-23T02:07:53.580Z,94563.33
2022-11-23T02:10:42.068Z,94560.48
2022-11-23T02:13:31.048Z,94559.11
2022-11-23T02:16:20.829Z,94569.40
2022-11-23T02:21:57.105Z,94558.41
2022-11-23T02:27:33.394Z,94570.98
2022-11-23T02:33:09.492Z,94566.94
2022-11-23T02:38:46.783Z,94557.06
2022-11-23T02:44:33.179Z,94557.08
2022-11-23T02:47:22.436Z,94559.28
2022-11-23T02:50:12.082Z,94558.17
2022-11-23T02:55:42.440Z,94556.22
2022-11-23T03:01:17.041Z,94552.42
2022-11-23T03:06:54.999Z,94553.91
2022-11-23T03:09:45.401Z,94553.21
2022-11-23T03:18:20.429Z,94549.69
2022-11-23T03:21:09.324Z,94553.91
2022-11-23T03:26:39.276Z,94554.23
2022-11-23T03:32:16.249Z,94544.27
2022-11-23T03:37:52.027Z,94540.97
2022-11-23T03:43:25.233Z,94536.41
2022-11-23T03:48:55.366Z,94526.54
2022-11-23T03:54:24.835Z,94528.81
2022-11-23T03:59:59.119Z,94517.96
2022-11-23T04:05:37.792Z,94519.02
2022-11-23T04:08:26.118Z,94519.35
2022-11-23T04:14:02.447Z,94520.28
2022-11-23T04:19:36.992Z,94519.80
2022-11-23T04:22:27.151Z,94518.06
2022-11-23T04:25:15.531Z,94510.83
2022-11-23T04:30:48.440Z,94503.88
2022-11-23T04:36:18.082Z,94486.62
2022-11-23T04:39:07.116Z,94487.41
2022-11-23T04:41:55.500Z,94487.34
2022-11-23T04:47:33.993Z,94485.66
2022-11-23T04:50:23.886Z,94487.84
2022-11-23T04:53:12.018Z,94481.77
2022-11-23T04:56:03.946Z,94482.88
2022-11-23T05:01:38.970Z,94486.44
2022-11-23T05:07:13.382Z,94475.20
2022-11-23T05:15:33.660Z,94475.57
2022-11-23T05:21:06.891Z,94486.08
2022-11-23T05:26:38.617Z,94481.80
2022-11-23T05:29:29.385Z,94478.55
2022-11-23T05:32:29.822Z,94482.58
2022-11-23T05:35:18.277Z,94472.95
2022-11-23T05:40:47.567Z,94469.02
2022-11-23T05:43:38.223Z,94474.61
2022-11-23T05:49:18.123Z,94478.38
2022-11-23T05:57:40.723Z,94476.19
2022-11-23T06:03:16.443Z,94480.45
2022-11-23T06:11:32.442Z,94481.36
2022-11-23T06:17:07.747Z,94491.66
2022-11-23T06:22:35.796Z,94491.18
2022-11-23T06:28:08.145Z,94491.44
2022-11-23T06:33:34.073Z,94487.98
2022-11-23T06:36:22.810Z,94488.77
2022-11-23T06:39:11.335Z,94493.03
2022-11-23T06:44:45.911Z,94496.19
2022-11-23T06:50:16.939Z,94500.98
2022-11-23T06:53:05.844Z,94505.30
2022-11-23T06:55:57.323Z,94506.88
2022-11-23T07:01:33.865Z,94517.98
2022-11-23T07:04:22.315Z,94515.60
2022-11-23T07:12:43.668Z,94517.89
2022-11-23T07:18:21.685Z,94527.91
2022-11-23T07:23:52.506Z,94540.35
2022-11-23T07:32:45.462Z,94547.22
2022-11-23T07:39:36.386Z,94543.62
2022-11-23T07:45:59.549Z,94545.42
2022-11-23T07:52:35.806Z,94537.77
2022-11-23T07:59:12.116Z,94536.67
2022-11-23T08:05:49.602Z,94520.64
2022-11-23T08:11:48.300Z,94516.09
2022-11-23T08:17:18.725Z,94516.84
2022-11-23T08:20:08.728Z,94521.72
2022-11-23T08:22:58.482Z,94522.42
2022-11-23T08:28:28.203Z,94511.97
2022-11-23T08:34:19.408Z,94509.60
2022-11-23T08:39:58.480Z,94507.13
2022-11-23T08:42:47.907Z,94501.98
2022-11-23T08:45:36.234Z,94511.42
2022-11-23T08:56:59.018Z,94517.04
2022-11-23T09:00:00.850Z,94516.13
2022-11-23T09:05:35.141Z,94510.98
2022-11-23T09:13:52.038Z,94515.40
2022-11-23T09:16:40.479Z,94519.41
2022-11-23T09:19:29.371Z,94525.39
2022-11-23T09:24:59.671Z,94520.77
2022-11-23T09:27:48.306Z,94522.08
2022-11-23T09:33:18.549Z,94521.92
2022-11-23T09:38:57.222Z,94523.92
2022-11-23T09:50:38.820Z,94537.38
2022-11-23T09:56:16.786Z,94534.55
2022-11-23T09:59:11.148Z,94537.03
2022-11-23T10:04:49.428Z,94524.28
2022-11-23T10:07:45.500Z,94520.20
2022-11-23T10:13:35.362Z,94518.83
2022-11-23T10:19:18.286Z,94520.85
2022-11-23T10:24:55.941Z,94521.37
2022-11-23T10:27:45.527Z,94521.05
2022-11-23T10:33:25.206Z,94511.27
2022-11-23T10:41:42.085Z,94508.66
2022-11-23T10:47:37.886Z,94516.44
2022-11-23T10:50:29.816Z,94515.14
2022-11-23T10:56:13.389Z,94506.89
2022-11-23T11:01:41.258Z,94497.98
2022-11-23T11:04:29.943Z,94505.61
2022-11-23T11:10:16.791Z,94479.56
2022-11-23T11:13:07.335Z,94475.99
2022-11-23T11:18:44.238Z,94480.70
2022-11-23T11:21:38.756Z,94479.27
2022-11-23T11:30:06.722Z,94473.42
2022-11-23T11:38:32.475Z,94464.47
2022-11-23T11:46:55.507Z,94452.15
2022-11-23T11:52:36.614Z,94439.94
2022-11-23T11:58:18.731Z,94427.20
2022-11-23T12:01:09.999Z,94435.48
2022-11-23T12:12:26.582Z,94440.09
2022-11-23T12:18:39.016Z,94428.73
2022-11-23T12:24:28.508Z,94442.28
2022-11-23T12:30:22.979Z,94438.53
2022-11-23T12:33:27.107Z,94441.52
2022-11-23T12:36:31.360Z,94428.89
2022-11-23T12:42:18.311Z,94430.09
2022-11-23T12:50:46.891Z,94424.79
2022-11-23T12:56:25.125Z,94422.52
2022-11-23T13:02:05.118Z,94417.45
2022-11-23T13:08:15.446Z,94412.89
2022-11-23T13:14:04.885Z,94415.11
2022-11-23T13:17:03.018Z,94412.41
2022-11-23T13:22:54.954Z,94410.04
2022-11-23T13:28:32.761Z,94399.77
2022-11-23T13:31:24.656Z,94396.89
2022-11-23T13:34:45.333Z,94400.35
2022-11-23T13:43:07.709Z,94392.67
2022-11-23T13:52:06.545Z,94396.18
2022-11-23T13:55:20.555Z,94386.59
2022-11-23T14:02:04.384Z,94389.52
2022-11-23T14:07:36.056Z,94382.23
2022-11-23T14:10:25.543Z,94387.95
2022-11-23T14:16:50.859Z,94389.51
2022-11-23T14:20:11.908Z,94393.64
2022-11-23T14:23:23.929Z,94387.52
2022-11-23T14:29:07.574Z,94395.86
2022-11-23T14:35:17.773Z,94380.75
2022-11-23T14:41:03.533Z,94388.33
2022-11-23T14:46:35.934Z,94368.64
2022-11-23T14:52:23.616Z,94367.53
2022-11-23T15:00:43.369Z,94379.38
2022-11-23T15:06:20.601Z,94367.41
2022-11-23T15:12:10.810Z,94367.49
2022-11-23T15:18:15.016Z,94370.63
2022-11-23T15:21:05.920Z,94383.01
2022-11-23T15:23:57.670Z,94382.09
2022-11-23T15:29:38.050Z,94388.69
2022-11-23T15:35:17.958Z,94392.73
2022-11-23T15:41:03.257Z,94381.35
2022-11-23T15:46:38.991Z,94390.33
2022-11-23T15:52:18.723Z,94410.32
2022-11-23T15:57:55.148Z,94425.53
2022-11-23T16:03:37.023Z,94441.69
2022-11-23T16:12:31.890Z,94461.41
2022-11-23T16:21:21.102Z,94485.35
2022-11-23T16:27:15.433Z,94493.15
2022-11-23T16:32:48.835Z,94493.20
2022-11-23T16:38:32.541Z,94508.69
2022-11-23T16:44:18.066Z,94554.30
2022-11-23T16:50:01.267Z,94575.02
2022-11-23T16:55:30.893Z,94593.03
2022-11-23T16:58:19.461Z,94610.67
2022-11-23T17:03:47.389Z,94626.67
2022-11-23T17:09:25.117Z,94637.01
2022-11-23T17:15:15.537Z,94651.95
2022-11-23T17:20:52.432Z,94654.28
2022-11-23T17:26:34.833Z,94658.89
2022-11-23T17:32:10.009Z,94676.53
2022-11-23T17:37:58.791Z,94677.09
2022-11-23T17:43:30.939Z,94696.02
2022-11-23T17:46:21.168Z,94714.19
2022-11-23T17:51:59.366Z,94731.59
2022-11-23T18:00:37.564Z,94758.05
2022-11-23T18:03:25.840Z,94760.15
2022-11-23T18:06:15.933Z,94775.63
2022-11-23T18:11:46.107Z,94791.95
2022-11-23T18:14:34.514Z,94796.70
2022-11-23T18:17:24.055Z,94804.67
2022-11-23T18:22:59.587Z,94814.85
2022-11-23T18:28:30.812Z,94838.42
2022-11-23T18:31:23.473Z,94847.25
2022-11-23T18:37:02.591Z,94851.84
2022-11-23T18:45:24.722Z,94858.84
2022-11-23T18:53:55.473Z,94898.59
2022-11-23T18:59:57.472Z,94912.02
2022-11-23T19:02:32.615Z,94915.86
2022-11-23T19:05:21.405Z,94934.38
2022-11-23T19:08:10.539Z,94934.84
2022-11-23T19:11:08.204Z,94942.39
2022-11-23T19:16:53.803Z,94970.58
2022-11-23T19:22:28.187Z,94984.84
2022-11-23T19:27:58.596Z,94997.16
2022-11-23T19:33:37.600Z,95002.83
2022-11-23T19:39:20.236Z,95008.52
2022-11-23T19:45:08.265Z,95016.34
2022-11-23T19:53:49.101Z,95026.56
2022-11-23T20:02:36.364Z,95032.98
2022-11-23T20:12:04.514Z,95062.45
2022-11-23T20:17:35.613Z,95075.58
2022-11-23T20:20:33.081Z,95085.36
2022-11-23T20:23:41.007Z,95089.70
2022-11-23T20:26:29.464Z,95096.34
2022-11-23T20:32:10.456Z,95104.88
2022-11-23T20:38:14.269Z,95132.82
2022-11-23T20:41:26.670Z,95137.34
2022-11-23T21:00:38.897Z,95189.98
2022-11-23T21:09:13.305Z,95202.73
2022-11-23T21:18:10.890Z,95197.48
2022-11-23T21:24:50.340Z,95213.55
2022-11-23T21:34:26.682Z,95250.67
2022-11-23T21:42:47.757Z,95242.43
2022-11-23T21:45:38.519Z,95226.65
2022-11-23T21:48:27.146Z,95236.62
2022-11-23T21:54:06.350Z,95240.51
2022-11-23T21:59:39.767Z,95245.25
2022-11-23T22:02:30.491Z,95251.38
2022-11-23T22:05:18.813Z,95254.84
2022-11-23T22:13:36.895Z,95248.86
2022-11-23T22:24:36.141Z,95246.81
2022-11-23T22:27:24.418Z,95260.00
2022-11-23T22:32:57.943Z,95266.98
2022-11-23T22:35:49.237Z,95270.15
2022-11-23T22:41:21.274Z,95267.10
2022-11-23T22:47:02.962Z,95272.12
2022-11-23T22:55:21.424Z,95260.87
2022-11-23T23:03:59.398Z,95270.16
2022-11-23T23:06:50.971Z,95265.58
2022-11-23T23:09:39.337Z,95263.22
2022-11-23T23:15:14.737Z,95267.69
2022-11-23T23:20:53.767Z,95258.94
2022-11-23T23:23:45.123Z,95267.17
2022-11-23T23:29:17.185Z,95265.59
2022-11-23T23:34:49.614Z,95273.21
2022-11-23T23:40:26.075Z,95272.88
2022-11-23T23:43:14.315Z,95272.10
2022-11-23T23:48:45.274Z,95268.27
2022-11-23T23:51:35.036Z,95277.25
2022-11-23T23:54:23.581Z,95269.78
2022-11-23T23:59:53.636Z,95264.50
